createdAt,value
2018-05-26T00:01:02.416Z,64.25
2018-05-26T00:03:47.503Z,64.34
2018-05-26T00:06:31.740Z,64.52
2018-05-26T00:09:15.978Z,64.18
2018-05-26T00:12:00.969Z,64.54
2018-05-26T00:14:45.235Z,64.60
2018-05-26T00:17:29.460Z,64.25
2018-05-26T00:20:14.465Z,64.53
2018-05-26T00:23:03.557Z,64.76
2018-05-26T00:25:47.801Z,65.00
2018-05-26T00:28:32.028Z,64.89
2018-05-26T00:31:16.244Z,64.69
2018-05-26T00:34:01.248Z,64.78
2018-05-26T00:36:45.507Z,64.75
2018-05-26T00:39:29.757Z,64.79
2018-05-26T00:42:13.986Z,65.03
2018-05-26T00:44:58.963Z,64.84
2018-05-26T00:47:43.201Z,64.75
2018-05-26T00:50:28.179Z,64.92
2018-05-26T00:53:12.433Z,64.88
2018-05-26T00:55:57.430Z,64.61
2018-05-26T00:58:41.681Z,64.80
2018-05-26T01:01:25.891Z,64.68
2018-05-26T01:04:10.897Z,64.84
2018-05-26T01:06:55.948Z,65.10
2018-05-26T01:09:40.966Z,65.11
2018-05-26T01:12:25.206Z,65.25
2018-05-26T01:15:09.429Z,65.38
2018-05-26T01:17:53.689Z,65.51
2018-05-26T01:20:37.909Z,65.33
2018-05-26T01:23:22.168Z,65.76
2018-05-26T01:26:07.163Z,65.88
2018-05-26T01:28:51.392Z,66.05
2018-05-26T01:31:36.422Z,66.15
2018-05-26T01:34:21.450Z,66.34
2018-05-26T01:37:05.666Z,66.37
2018-05-26T01:39:49.942Z,66.48
2018-05-26T01:42:34.172Z,66.52
2018-05-26T01:45:18.417Z,66.31
2018-05-26T01:48:02.638Z,66.31
2018-05-26T01:50:46.904Z,66.34
2018-05-26T01:53:31.122Z,66.30
2018-05-26T01:56:15.378Z,66.30
2018-05-26T01:58:59.590Z,66.57
2018-05-26T02:01:43.814Z,66.43
2018-05-26T02:07:07.686Z,66.33
2018-05-26T02:09:52.212Z,66.32
2018-05-26T02:12:37.202Z,66.26
2018-05-26T02:15:21.468Z,66.12
2018-05-26T02:18:05.698Z,66.16
2018-05-26T02:20:50.712Z,66.35
2018-05-26T02:23:34.955Z,66.41
2018-05-26T02:26:19.185Z,66.72
2018-05-26T02:29:03.429Z,66.96
2018-05-26T02:31:48.430Z,67.20
2018-05-26T02:34:32.649Z,67.41
2018-05-26T02:37:16.887Z,67.80
2018-05-26T02:40:01.106Z,67.99
2018-05-26T02:42:45.369Z,68.26
2018-05-26T02:45:29.607Z,68.52
2018-05-26T02:48:13.840Z,68.68
2018-05-26T02:50:58.797Z,68.74
2018-05-26T02:53:43.021Z,68.87
2018-05-26T02:56:28.026Z,68.71
2018-05-26T02:59:12.252Z,68.64
2018-05-26T03:01:57.266Z,68.60
2018-05-26T03:04:46.985Z,68.50
2018-05-26T03:07:36.736Z,68.44
2018-05-26T03:10:26.453Z,68.65
2018-05-26T03:13:16.931Z,68.62
2018-05-26T03:16:08.511Z,68.62
2018-05-26T03:18:52.768Z,68.55
2018-05-26T03:21:36.992Z,68.67
2018-05-26T03:24:21.990Z,68.75
2018-05-26T03:27:06.220Z,68.74
2018-05-26T03:29:51.225Z,68.72
2018-05-26T03:32:35.472Z,68.63
2018-05-26T03:35:19.776Z,68.54
2018-05-26T03:38:04.014Z,68.44
2018-05-26T03:40:48.255Z,68.37
2018-05-26T03:43:32.474Z,68.20
2018-05-26T03:46:16.732Z,68.21
2018-05-26T03:49:00.971Z,68.29
2018-05-26T03:51:45.221Z,68.14
2018-05-26T03:54:47.041Z,68.12
2018-05-26T03:57:48.973Z,68.13
2018-05-26T04:00:33.186Z,68.21
2018-05-26T04:03:18.202Z,68.05
2018-05-26T04:06:03.341Z,67.96
2018-05-26T04:08:47.501Z,67.93
2018-05-26T04:11:31.748Z,67.68
2018-05-26T04:14:16.752Z,67.62
2018-05-26T04:17:01.040Z,67.58
2018-05-26T04:19:45.277Z,67.71
2018-05-26T04:22:29.525Z,67.58
2018-05-26T04:25:13.747Z,67.38
2018-05-26T04:27:57.997Z,67.08
2018-05-26T04:30:42.241Z,67.27
2018-05-26T04:33:26.462Z,67.10
2018-05-26T04:36:10.701Z,66.99
2018-05-26T04:38:54.946Z,66.98
2018-05-26T04:41:39.194Z,67.02
2018-05-26T04:44:23.413Z,66.93
2018-05-26T04:47:07.687Z,67.08
2018-05-26T04:49:51.933Z,67.25
2018-05-26T04:52:36.953Z,67.03
2018-05-26T04:55:21.999Z,67.33
2018-05-26T04:58:06.234Z,67.24
2018-05-26T05:00:50.501Z,67.04
2018-05-26T05:03:34.739Z,66.86
2018-05-26T05:06:18.998Z,66.94
2018-05-26T05:09:03.219Z,66.69
2018-05-26T05:11:47.472Z,66.74
2018-05-26T05:14:31.710Z,66.74
2018-05-26T05:17:15.935Z,66.97
2018-05-26T05:20:00.173Z,66.93
2018-05-26T05:22:44.418Z,67.03
2018-05-26T05:25:28.668Z,66.46
2018-05-26T05:28:12.887Z,66.45
2018-05-26T05:30:57.152Z,66.06
2018-05-26T05:33:41.360Z,65.80
2018-05-26T05:36:26.396Z,65.75
2018-05-26T05:39:11.344Z,65.78
2018-05-26T05:41:55.622Z,65.40
2018-05-26T05:44:39.836Z,65.61
2018-05-26T05:47:24.097Z,65.92
2018-05-26T05:50:08.351Z,65.02
2018-05-26T05:52:52.589Z,65.04
2018-05-26T05:55:36.837Z,64.40
2018-05-26T05:58:21.834Z,64.41
2018-05-26T06:01:06.069Z,64.41
2018-05-26T06:03:50.305Z,64.06
2018-05-26T06:06:35.297Z,63.43
2018-05-26T06:09:19.514Z,62.93
2018-05-26T06:12:04.516Z,63.04
2018-05-26T06:14:48.789Z,62.83
2018-05-26T06:17:33.759Z,62.21
2018-05-26T06:20:17.983Z,61.85
2018-05-26T06:23:02.228Z,61.71
2018-05-26T06:25:47.301Z,61.79
2018-05-26T06:28:32.286Z,60.91
2018-05-26T06:31:16.536Z,60.79
2018-05-26T06:34:00.849Z,60.54
2018-05-26T06:36:45.066Z,60.34
2018-05-26T06:39:29.321Z,58.96
2018-05-26T06:42:13.556Z,58.92
2018-05-26T06:44:57.794Z,58.68
2018-05-26T06:47:42.014Z,58.48
2018-05-26T06:50:26.244Z,58.35
2018-05-26T06:53:10.506Z,58.05
2018-05-26T06:55:54.952Z,57.68
2018-05-26T06:58:39.206Z,57.31
2018-05-26T07:01:23.417Z,56.38
2018-05-26T07:04:07.676Z,56.30
2018-05-26T07:06:51.901Z,55.57
2018-05-26T07:09:36.148Z,54.97
2018-05-26T07:12:20.405Z,54.57
2018-05-26T07:15:05.440Z,54.62
2018-05-26T07:17:49.642Z,54.75
2018-05-26T07:20:34.676Z,52.85
2018-05-26T07:23:18.916Z,53.26
2018-05-26T07:26:03.172Z,52.91
2018-05-26T07:28:47.404Z,52.54
2018-05-26T07:31:31.643Z,52.11
2018-05-26T07:34:15.872Z,51.33
2018-05-26T07:37:00.892Z,49.67
2018-05-26T07:39:45.280Z,49.19
2018-05-26T07:42:29.486Z,48.80
2018-05-26T07:45:13.735Z,48.91
2018-05-26T07:47:57.966Z,48.81
2018-05-26T07:50:42.228Z,47.05
2018-05-26T07:53:26.483Z,46.75
2018-05-26T07:56:10.714Z,45.57
2018-05-26T07:58:55.719Z,44.93
2018-05-26T08:01:40.101Z,45.50
2018-05-26T08:04:25.167Z,45.31
2018-05-26T08:07:09.391Z,44.71
2018-05-26T08:09:53.625Z,44.56
2018-05-26T08:12:38.636Z,44.88
2018-05-26T08:15:22.905Z,44.50
2018-05-26T08:18:07.176Z,44.02
2018-05-26T08:20:51.438Z,43.45
2018-05-26T08:23:35.658Z,42.59
2018-05-26T08:26:19.916Z,42.37
2018-05-26T08:29:04.131Z,41.55
2018-05-26T08:31:48.390Z,42.02
2018-05-26T08:34:32.633Z,40.61
2018-05-26T08:37:16.874Z,39.69
2018-05-26T08:40:01.092Z,40.26
2018-05-26T08:42:45.341Z,40.61
2018-05-26T08:45:29.631Z,39.80
2018-05-26T08:48:13.835Z,40.09
2018-05-26T08:50:58.073Z,39.65
2018-05-26T08:53:42.357Z,38.63
2018-05-26T08:56:26.563Z,38.90
2018-05-26T08:59:10.782Z,38.71
2018-05-26T09:01:55.791Z,38.89
2018-05-26T09:04:40.036Z,39.17
2018-05-26T09:07:24.297Z,37.64
2018-05-26T09:10:08.554Z,37.96
2018-05-26T09:12:52.778Z,38.28
2018-05-26T09:15:37.009Z,38.66
2018-05-26T09:18:22.378Z,38.29
2018-05-26T09:21:25.760Z,35.99
2018-05-26T09:24:12.474Z,37.14
2018-05-26T09:26:57.202Z,36.99
2018-05-26T09:29:41.504Z,36.30
2018-05-26T09:32:25.734Z,36.34
2018-05-26T09:35:09.963Z,36.62
2018-05-26T09:37:54.206Z,34.98
2018-05-26T09:40:38.424Z,34.15
2018-05-26T09:43:23.427Z,33.77
2018-05-26T09:46:07.657Z,33.83
2018-05-26T09:48:52.646Z,32.43
2018-05-26T09:51:36.900Z,31.75
2018-05-26T09:54:21.166Z,32.86
2018-05-26T09:57:05.389Z,32.52
2018-05-26T09:59:50.395Z,32.42
2018-05-26T10:02:34.616Z,32.48
2018-05-26T10:05:18.873Z,31.95
2018-05-26T10:08:03.090Z,31.99
2018-05-26T10:10:47.335Z,30.61
2018-05-26T10:13:31.586Z,31.31
2018-05-26T10:16:15.830Z,31.06
2018-05-26T10:19:00.068Z,31.19
2018-05-26T10:21:44.316Z,31.24
2018-05-26T10:24:28.556Z,33.27
2018-05-26T10:27:12.786Z,29.80
2018-05-26T10:29:57.057Z,29.05
2018-05-26T10:32:41.277Z,29.42
2018-05-26T10:35:25.606Z,28.68
2018-05-26T10:38:10.570Z,28.08
2018-05-26T10:40:54.779Z,27.36
2018-05-26T10:43:38.989Z,26.68
2018-05-26T10:46:26.669Z,25.60
2018-05-26T10:49:10.883Z,25.82
2018-05-26T10:51:55.131Z,25.24
2018-05-26T10:54:39.364Z,26.09
2018-05-26T10:57:23.620Z,24.79
2018-05-26T11:00:07.852Z,27.17
2018-05-26T11:02:52.201Z,28.28
2018-05-26T11:05:36.450Z,28.03
2018-05-26T11:08:20.692Z,28.15
2018-05-26T11:11:04.960Z,26.90
2018-05-26T11:13:49.198Z,26.90
2018-05-26T11:16:33.469Z,27.86
2018-05-26T11:19:17.704Z,28.47
2018-05-26T11:22:02.722Z,28.84
2018-05-26T11:24:47.009Z,28.32
2018-05-26T11:27:31.206Z,28.57
2018-05-26T11:30:15.453Z,29.14
2018-05-26T11:32:59.672Z,28.06
2018-05-26T11:35:43.941Z,27.56
2018-05-26T11:38:28.191Z,28.26
2018-05-26T11:41:12.408Z,29.36
2018-05-26T11:43:57.429Z,29.28
2018-05-26T11:46:41.652Z,29.05
2018-05-26T11:49:25.937Z,28.44
2018-05-26T11:52:10.216Z,28.85
2018-05-26T11:54:54.447Z,28.34
2018-05-26T11:57:38.689Z,28.52
2018-05-26T12:00:23.163Z,28.77
2018-05-26T12:03:07.379Z,29.38
2018-05-26T12:05:51.602Z,29.20
2018-05-26T12:08:35.830Z,29.02
2018-05-26T12:11:20.061Z,28.56
2018-05-26T12:14:04.326Z,27.76
2018-05-26T12:16:48.560Z,27.70
2018-05-26T12:19:32.809Z,28.05
2018-05-26T12:22:17.047Z,27.39
2018-05-26T12:25:02.062Z,27.31
2018-05-26T12:27:46.290Z,27.00
2018-05-26T12:30:30.557Z,26.20
2018-05-26T12:33:14.776Z,26.91
2018-05-26T12:35:59.017Z,26.74
2018-05-26T12:38:43.258Z,26.11
2018-05-26T12:41:28.253Z,26.94
2018-05-26T12:44:12.490Z,27.27
2018-05-26T12:46:57.485Z,26.75
2018-05-26T12:49:41.693Z,25.53
2018-05-26T12:52:26.717Z,26.32
2018-05-26T12:55:10.942Z,25.63
2018-05-26T12:57:55.161Z,25.43
2018-05-26T13:00:39.481Z,25.96
2018-05-26T13:03:23.687Z,26.66
2018-05-26T13:06:08.781Z,26.70
2018-05-26T13:08:52.955Z,25.29
2018-05-26T13:11:37.186Z,25.77
2018-05-26T13:14:21.457Z,24.90
2018-05-26T13:17:05.668Z,24.29
2018-05-26T13:19:50.661Z,24.50
2018-05-26T13:22:34.878Z,23.45
2018-05-26T13:25:19.127Z,23.15
2018-05-26T13:28:03.333Z,23.89
2018-05-26T13:30:47.591Z,23.73
2018-05-26T13:33:31.819Z,22.70
2018-05-26T13:36:16.080Z,23.36
2018-05-26T13:39:00.301Z,23.86
2018-05-26T13:41:45.334Z,23.66
2018-05-26T13:44:29.568Z,23.99
2018-05-26T13:47:13.805Z,24.19
2018-05-26T13:49:58.047Z,24.47
2018-05-26T13:52:43.042Z,24.58
2018-05-26T13:55:27.277Z,24.36
2018-05-26T13:58:11.528Z,24.61
2018-05-26T14:00:55.769Z,24.29
2018-05-26T14:03:40.742Z,23.48
2018-05-26T14:06:25.076Z,23.83
2018-05-26T14:09:10.081Z,23.52
2018-05-26T14:11:54.407Z,22.95
2018-05-26T14:14:38.901Z,23.10
2018-05-26T14:17:23.121Z,22.86
2018-05-26T14:20:08.129Z,22.97
2018-05-26T14:22:52.375Z,23.92
2018-05-26T14:25:36.612Z,23.15
2018-05-26T14:28:20.997Z,23.91
2018-05-26T14:31:05.224Z,23.74
2018-05-26T14:33:49.481Z,23.25
2018-05-26T14:36:33.958Z,23.11
2018-05-26T14:39:18.211Z,22.76
2018-05-26T14:42:02.513Z,22.79
2018-05-26T14:44:46.874Z,22.94
2018-05-26T14:47:31.100Z,22.58
2018-05-26T14:50:15.351Z,22.56
2018-05-26T14:52:59.598Z,22.67
2018-05-26T14:55:43.837Z,22.98
2018-05-26T14:58:28.071Z,22.13
2018-05-26T15:01:12.311Z,22.77
2018-05-26T15:03:56.531Z,23.36
2018-05-26T15:06:40.772Z,23.89
2018-05-26T15:09:25.003Z,24.07
2018-05-26T15:12:09.236Z,24.20
2018-05-26T15:14:53.453Z,24.12
2018-05-26T15:17:38.452Z,24.19
2018-05-26T15:20:22.684Z,23.74
2018-05-26T15:23:07.714Z,23.14
2018-05-26T15:25:51.938Z,23.97
2018-05-26T15:28:36.155Z,24.84
2018-05-26T15:31:21.175Z,25.28
2018-05-26T15:34:05.409Z,25.10
2018-05-26T15:36:49.644Z,24.85
2018-05-26T15:39:33.868Z,25.10
2018-05-26T15:42:18.209Z,24.34
2018-05-26T15:45:02.382Z,24.68
2018-05-26T15:47:47.387Z,24.52
2018-05-26T15:50:31.632Z,24.15
2018-05-26T15:53:15.884Z,24.17
2018-05-26T15:56:00.117Z,24.64
2018-05-26T15:58:45.109Z,24.36
2018-05-26T16:01:29.344Z,24.72
2018-05-26T16:04:14.375Z,24.89
2018-05-26T16:06:58.582Z,24.57
2018-05-26T16:09:42.837Z,24.97
2018-05-26T16:12:27.051Z,25.08
2018-05-26T16:15:11.309Z,24.97
2018-05-26T16:17:55.554Z,25.44
2018-05-26T16:20:39.778Z,25.49
2018-05-26T16:23:24.035Z,25.14
2018-05-26T16:26:08.267Z,25.20
2018-05-26T16:28:52.554Z,25.25
2018-05-26T16:31:36.812Z,25.35
2018-05-26T16:34:21.042Z,25.27
2018-05-26T16:37:05.270Z,25.32
2018-05-26T16:39:49.525Z,25.85
2018-05-26T16:42:33.734Z,26.28
2018-05-26T16:45:18.770Z,25.68
2018-05-26T16:48:02.990Z,26.44
2018-05-26T16:50:47.221Z,27.09
2018-05-26T16:53:32.247Z,26.95
2018-05-26T16:56:16.446Z,27.13
2018-05-26T16:59:01.460Z,27.62
2018-05-26T17:01:45.711Z,27.13
2018-05-26T17:04:29.925Z,27.60
2018-05-26T17:07:14.932Z,27.88
2018-05-26T17:09:59.151Z,28.21
2018-05-26T17:12:43.398Z,28.59
2018-05-26T17:15:28.377Z,28.79
2018-05-26T17:18:12.643Z,28.21
2018-05-26T17:20:56.849Z,28.87
2018-05-26T17:23:41.080Z,28.96
2018-05-26T17:26:25.344Z,29.02
2018-05-26T17:29:09.561Z,28.42
2018-05-26T17:31:53.803Z,28.73
2018-05-26T17:34:38.032Z,28.99
2018-05-26T17:37:23.018Z,28.96
2018-05-26T17:40:07.319Z,29.10
2018-05-26T17:42:51.550Z,29.00
2018-05-26T17:45:35.785Z,28.47
2018-05-26T17:48:20.020Z,28.67
2018-05-26T17:51:05.035Z,29.17
2018-05-26T17:53:49.244Z,29.08
2018-05-26T17:56:34.253Z,29.55
2018-05-26T17:59:18.493Z,29.39
2018-05-26T18:02:02.714Z,29.51
2018-05-26T18:04:47.717Z,29.92
2018-05-26T18:07:32.758Z,30.14
2018-05-26T18:10:17.780Z,30.38
2018-05-26T18:13:01.981Z,30.75
2018-05-26T18:15:46.989Z,30.34
2018-05-26T18:18:31.221Z,30.92
2018-05-26T18:21:15.465Z,30.54
2018-05-26T18:26:40.793Z,31.14
2018-05-26T18:29:25.046Z,30.87
2018-05-26T18:32:10.020Z,31.00
2018-05-26T18:34:54.286Z,31.10
2018-05-26T18:37:38.498Z,31.43
2018-05-26T18:40:22.723Z,31.70
2018-05-26T18:43:06.934Z,31.69
2018-05-26T18:45:51.165Z,32.01
2018-05-26T18:48:36.203Z,32.27
2018-05-26T18:51:20.412Z,32.69
2018-05-26T18:54:04.645Z,32.94
2018-05-26T18:56:49.654Z,32.91
2018-05-26T18:59:33.892Z,32.98
2018-05-26T19:02:18.153Z,33.26
2018-05-26T19:05:02.399Z,33.56
2018-05-26T19:07:46.629Z,33.53
2018-05-26T19:10:31.630Z,33.44
2018-05-26T19:13:15.876Z,33.90
2018-05-26T19:16:00.109Z,33.71
2018-05-26T19:18:45.122Z,33.39
2018-05-26T19:21:29.446Z,33.42
2018-05-26T19:24:13.681Z,33.62
2018-05-26T19:26:58.673Z,33.19
2018-05-26T19:29:42.882Z,33.75
2018-05-26T19:32:27.149Z,33.85
2018-05-26T19:35:12.141Z,33.83
2018-05-26T19:37:56.388Z,33.67
2018-05-26T19:40:41.372Z,33.74
2018-05-26T19:43:26.884Z,34.15
2018-05-26T19:46:11.140Z,34.43
2018-05-26T19:48:55.397Z,34.35
2018-05-26T19:51:39.617Z,34.79
2018-05-26T19:54:23.867Z,35.48
2018-05-26T19:57:08.102Z,35.72
2018-05-26T19:59:52.381Z,35.36
2018-05-26T20:02:36.628Z,35.68
2018-05-26T20:05:20.929Z,36.32
2018-05-26T20:08:05.402Z,36.16
2018-05-26T20:10:49.650Z,36.14
2018-05-26T20:13:33.863Z,36.12
2018-05-26T20:16:18.113Z,36.37
2018-05-26T20:19:02.346Z,36.36
2018-05-26T20:21:47.453Z,36.48
2018-05-26T20:24:31.781Z,36.46
2018-05-26T20:27:16.033Z,36.43
2018-05-26T20:30:00.281Z,36.76
2018-05-26T20:32:44.655Z,36.58
2018-05-26T20:35:28.890Z,36.69
2018-05-26T20:38:13.132Z,37.20
2018-05-26T20:40:57.417Z,37.28
2018-05-26T20:43:41.654Z,37.69
2018-05-26T20:46:25.900Z,37.80
2018-05-26T20:49:10.146Z,38.32
2018-05-26T20:51:54.394Z,38.54
2018-05-26T20:54:38.621Z,38.63
2018-05-26T20:57:22.843Z,38.64
2018-05-26T21:00:07.088Z,38.91
2018-05-26T21:02:51.348Z,38.94
2018-05-26T21:05:35.638Z,39.06
2018-05-26T21:08:20.619Z,39.22
2018-05-26T21:11:05.662Z,39.68
2018-05-26T21:13:49.902Z,39.97
2018-05-26T21:16:34.155Z,40.04
2018-05-26T21:19:18.364Z,40.23
2018-05-26T21:22:02.591Z,40.52
2018-05-26T21:24:47.626Z,40.63
2018-05-26T21:27:31.871Z,40.61
2018-05-26T21:30:16.109Z,40.46
2018-05-26T21:33:00.346Z,40.96
2018-05-26T21:35:44.585Z,41.13
2018-05-26T21:38:29.581Z,41.39
2018-05-26T21:41:13.821Z,41.51
2018-05-26T21:43:58.038Z,41.79
2018-05-26T21:46:43.062Z,41.92
2018-05-26T21:49:27.301Z,42.09
2018-05-26T21:52:11.529Z,42.25
2018-05-26T21:54:56.540Z,42.29
2018-05-26T21:57:40.794Z,42.41
2018-05-26T22:00:25.025Z,42.48
2018-05-26T22:03:09.257Z,42.63
2018-05-26T22:05:54.251Z,42.80
2018-05-26T22:08:38.457Z,42.92
2018-05-26T22:11:22.685Z,43.09
2018-05-26T22:14:06.915Z,43.13
2018-05-26T22:16:51.128Z,43.21
2018-05-26T22:19:36.164Z,43.51
2018-05-26T22:22:20.429Z,43.59
2018-05-26T22:25:04.638Z,43.68
2018-05-26T22:27:48.880Z,43.89
2018-05-26T22:30:33.119Z,44.09
2018-05-26T22:33:18.128Z,43.80
2018-05-26T22:36:02.356Z,44.08
2018-05-26T22:38:46.599Z,43.99
2018-05-26T22:41:30.843Z,44.28
2018-05-26T22:44:15.838Z,44.59
2018-05-26T22:47:00.073Z,44.66
2018-05-26T22:49:44.325Z,44.80
2018-05-26T22:52:29.342Z,44.80
2018-05-26T22:55:13.584Z,44.73
2018-05-26T22:57:57.806Z,44.86
2018-05-26T23:00:42.053Z,44.75
2018-05-26T23:03:26.274Z,44.75
2018-05-26T23:06:10.515Z,45.00
2018-05-26T23:08:54.746Z,45.09
2018-05-26T23:11:38.981Z,45.33
2018-05-26T23:14:23.212Z,45.59
2018-05-26T23:17:08.243Z,45.78
2018-05-26T23:19:52.482Z,45.86
2018-05-26T23:22:36.733Z,46.09
2018-05-26T23:25:20.955Z,46.32
2018-05-26T23:28:05.205Z,46.59
2018-05-26T23:30:49.431Z,46.88
2018-05-26T23:33:34.439Z,47.13
2018-05-26T23:36:18.673Z,47.42
2018-05-26T23:39:02.925Z,47.42
2018-05-26T23:41:47.134Z,47.60
2018-05-26T23:44:31.390Z,47.29
2018-05-26T23:47:15.665Z,47.58
2018-05-26T23:50:00.665Z,47.97
2018-05-26T23:52:44.897Z,47.95
2018-05-26T23:55:29.912Z,47.85
2018-05-26T23:58:14.162Z,48.26
